^^
Meteo Knjazevac Station Historical Data
Daily Summary for January 3, 2022 Units:  English    Metric   Both
Daily Weekly Monthly Yearly Custom
  High: Low: Average:
Temperature: 92.6 °F 55.2 °F 74.2 °F
Dew Point: 68.1 °F 53.7 °F 60.3 °F
Humidity: 96% 33% 66%
Wind Speed: 7mph 0mph 1.8mph
Wind Gust: 15mph - -
Wind- - South
Pressure: 30.10 in 29.99 in -
Precipitation: 0.00 in    
Historical Graphs
 
 
Tabular Data for January 3, 2022
Time Temperature Dew Point Pressure Wind Wind Speed Wind Gust Humidity Rainfall Rate (Hourly) solar Conditions
00:00 64.9 °F 58.9 °F 30.04 in Calm   2 mph 81% 0.00 in 0 W/m2
00:10 64.4 °F 58.5 °F 30.04 in NW 1 mph 2 mph 81% 0.00 in 0 W/m2
00:20 63.9 °F 58.6 °F 30.04 in Calm   1 mph 83% 0.00 in 0 W/m2
00:30 63.4 °F 58.1 °F 30.04 in Calm   1 mph 83% 0.00 in 0 W/m2
00:40 63 °F 58.1 °F 30.04 in NW 1 mph 2 mph 84% 0.00 in 0 W/m2
00:50 62.6 °F 57.7 °F 30.04 in Calm   2 mph 84% 0.00 in 0 W/m2
01:00 62.2 °F 57.7 °F 30.04 in Calm   2 mph 85% 0.00 in 0 W/m2
01:10 61.9 °F 57.3 °F 30.04 in WNW 1 mph 2 mph 85% 0.00 in 0 W/m2
01:20 61.3 °F 57.1 °F 30.05 in West 1 mph 2 mph 86% 0.00 in 0 W/m2
01:40 60.4 °F 56.9 °F 30.05 in WSW 2 mph 3 mph 88% 0.00 in 0 W/m2
01:50 60.3 °F 56.7 °F 30.05 in West 2 mph 4 mph 88% 0.00 in 0 W/m2
02:00 60.4 °F 56.9 °F 30.05 in West 1 mph 4 mph 88% 0.00 in 0 W/m2
02:10 60.1 °F 56.5 °F 30.05 in Calm   2 mph 88% 0.00 in 0 W/m2
02:20 59.9 °F 56.6 °F 30.05 in Calm   1 mph 89% 0.00 in 0 W/m2
02:30 59.5 °F 56.3 °F 30.05 in Calm   2 mph 89% 0.00 in 0 W/m2
02:50 58.8 °F 55.9 °F 30.05 in Calm   2 mph 90% 0.00 in 0 W/m2
03:00 58.6 °F 56 °F 30.05 in Calm   2 mph 91% 0.00 in 0 W/m2
03:10 58.5 °F 55.5 °F 30.05 in West 1 mph 2 mph 90% 0.00 in 0 W/m2
03:20 58.1 °F 55.5 °F 30.05 in NW 1 mph 2 mph 91% 0.00 in 0 W/m2
03:40 57.4 °F 54.8 °F 30.05 in WSW 1 mph 2 mph 91% 0.00 in 0 W/m2
03:50 57.2 °F 55.2 °F 30.05 in WNW 1 mph 2 mph 93% 0.00 in 0 W/m2
04:10 56.9 °F 54.9 °F 30.05 in Calm   2 mph 93% 0.00 in 0 W/m2
04:20 56.7 °F 55 °F 30.05 in Calm   1 mph 94% 0.00 in 0 W/m2
04:40 56.7 °F 55 °F 30.06 in Calm   1 mph 94% 0.00 in 0 W/m2
04:50 56.5 °F 54.8 °F 30.06 in Calm   2 mph 94% 0.00 in 0 W/m2
05:10 56.3 °F 54.6 °F 30.06 in West 1 mph 2 mph 94% 0.00 in 0 W/m2
05:20 55.9 °F 54.2 °F 30.06 in West 1 mph 3 mph 94% 0.00 in 0 W/m2
05:30 55.6 °F 53.9 °F 30.06 in West 1 mph 2 mph 94% 0.00 in 7 W/m2
05:40 55.4 °F 53.7 °F 30.06 in Calm   2 mph 94% 0.00 in 14 W/m2
05:50 55.2 °F 53.8 °F 30.07 in West 2 mph 4 mph 95% 0.00 in 21 W/m2
06:00 55.6 °F 54.2 °F 30.07 in West 1 mph 5 mph 95% 0.00 in 29 W/m2
06:20 55.6 °F 54.2 °F 30.07 in Calm   2 mph 95% 0.00 in 77 W/m2
06:40 55.9 °F 54.5 °F 30.08 in Calm   1 mph 95% 0.00 in 126 W/m2
06:50 56.1 °F 54.7 °F 30.08 in Calm   2 mph 95% 0.00 in 151 W/m2
07:00 56.7 °F 55.5 °F 30.08 in Calm   2 mph 96% 0.00 in 180 W/m2
07:20 58.3 °F 56.5 °F 30.08 in Calm   2 mph 94% 0.00 in 246 W/m2
07:40 59.9 °F 57.3 °F 30.08 in Calm   5 mph 91% 0.00 in 311 W/m2
07:50 61.2 °F 58.3 °F 30.09 in West 1 mph 2 mph 90% 0.00 in 345 W/m2
08:00 62.2 °F 58.6 °F 30.09 in Calm   2 mph 88% 0.00 in 377 W/m2
08:10 63.5 °F 59.2 °F 30.09 in North 1 mph 3 mph 86% 0.00 in 354 W/m2
08:20 64.7 °F 59.8 °F 30.09 in SW 1 mph 3 mph 84% 0.00 in 459 W/m2
08:30 65.8 °F 60.5 °F 30.09 in Calm   3 mph 83% 0.00 in 475 W/m2
08:50 69.1 °F 61.6 °F 30.09 in East 3 mph 6 mph 77% 0.00 in 311 W/m2
09:00 70 °F 62.4 °F 30.10 in NE 3 mph 7 mph 77% 0.00 in 336 W/m2
09:10 71.2 °F 62.9 °F 30.10 in NNE 1 mph 5 mph 75% 0.00 in 578 W/m2
09:20 72.1 °F 62.6 °F 30.10 in NE 2 mph 7 mph 72% 0.00 in 304 W/m2
09:30 72.5 °F 63 °F 30.09 in NE 2 mph 6 mph 72% 0.00 in 583 W/m2
09:40 74.3 °F 63.5 °F 30.09 in NE 2 mph 8 mph 69% 0.00 in 704 W/m2
09:50 76.1 °F 64.8 °F 30.09 in North 3 mph 8 mph 68% 0.00 in 728 W/m2
10:00 77 °F 63.9 °F 30.09 in NE 3 mph 10 mph 64% 0.00 in 750 W/m2
10:10 77.9 °F 64.3 °F 30.09 in NE 5 mph 10 mph 63% 0.00 in 772 W/m2
10:20 79 °F 65.3 °F 30.09 in NNE 5 mph 7 mph 63% 0.00 in 792 W/m2
10:30 79.9 °F 65.7 °F 30.09 in ENE 3 mph 8 mph 62% 0.00 in 811 W/m2
10:40 81 °F 66.7 °F 30.09 in NE 3 mph 8 mph 62% 0.00 in 829 W/m2
11:10 82.9 °F 67.1 °F 30.08 in NNE 5 mph 9 mph 59% 0.00 in 307 W/m2
11:20 83.7 °F 67.8 °F 30.08 in NNE 3 mph 7 mph 59% 0.00 in 150 W/m2
11:40 84.9 °F 66.9 °F 30.07 in North 3 mph 9 mph 55% 0.00 in 906 W/m2
11:50 85.3 °F 66.7 °F 30.07 in NNE 3 mph 8 mph 54% 0.00 in 914 W/m2
12:00 86 °F 67.4 °F 30.07 in North 1 mph 8 mph 54% 0.00 in 920 W/m2
12:10 86.2 °F 68.1 °F 30.06 in NW 2 mph 8 mph 55% 0.00 in 924 W/m2
12:20 86.9 °F 67.7 °F 30.06 in North 3 mph 12 mph 53% 0.00 in 927 W/m2
12:40 87.6 °F 66.7 °F 30.06 in North 2 mph 12 mph 50% 0.00 in 929 W/m2
12:50 88 °F 65.8 °F 30.05 in North 5 mph 13 mph 48% 0.00 in 927 W/m2
13:10 88.7 °F 64.6 °F 30.04 in NNE 3 mph 12 mph 45% 0.00 in 920 W/m2
13:20 88.9 °F 66 °F 30.04 in NE 2 mph 8 mph 47% 0.00 in 913 W/m2
13:30 89.4 °F 66.5 °F 30.04 in North 3 mph 12 mph 47% 0.00 in 906 W/m2
13:40 89.4 °F 64.6 °F 30.04 in NNW 2 mph 9 mph 44% 0.00 in 896 W/m2
13:50 89.8 °F 64.3 °F 30.03 in NNE 2 mph 13 mph 43% 0.00 in 886 W/m2
14:00 90 °F 64.5 °F 30.03 in NNE 3 mph 12 mph 43% 0.00 in 873 W/m2
14:20 90.5 °F 62.9 °F 30.02 in North 2 mph 13 mph 40% 0.00 in 845 W/m2
14:30 90.9 °F 62.5 °F 30.02 in NNW 6 mph 13 mph 39% 0.00 in 828 W/m2
14:40 91.4 °F 62.2 °F 30.02 in NNW 2 mph 9 mph 38% 0.00 in 811 W/m2
14:50 91.6 °F 61.6 °F 30.02 in North 7 mph 14 mph 37% 0.00 in 792 W/m2
15:00 91.8 °F 60.2 °F 30.01 in North 5 mph 13 mph 35% 0.00 in 771 W/m2
15:10 92.3 °F 60.7 °F 30.01 in North 5 mph 10 mph 35% 0.00 in 750 W/m2
15:30 92.5 °F 60 °F 30.01 in North 5 mph 12 mph 34% 0.00 in 703 W/m2
15:40 92.5 °F 60 °F 30.01 in North 3 mph 15 mph 34% 0.00 in 679 W/m2
16:00 92.6 °F 60.2 °F 30.01 in NNW 2 mph 9 mph 34% 0.00 in 626 W/m2
16:10 92.3 °F 59 °F 30.01 in North 5 mph 12 mph 33% 0.00 in 599 W/m2
16:30 92.5 °F 60 °F 30.00 in North 5 mph 10 mph 34% 0.00 in 542 W/m2
16:40 92.3 °F 59 °F 30.00 in North 5 mph 8 mph 33% 0.00 in 513 W/m2
16:50 92.3 °F 62.2 °F 30.00 in North 2 mph 10 mph 37% 0.00 in 483 W/m2
17:00 91.9 °F 62.7 °F 30.00 in NNE 3 mph 7 mph 38% 0.00 in 452 W/m2
17:30 90.1 °F 61.1 °F 29.99 in NE 2 mph 9 mph 38% 0.00 in 352 W/m2
17:40 90.5 °F 62.2 °F 29.99 in NNE 2 mph 9 mph 39% 0.00 in 329 W/m2
17:50 90.7 °F 61.6 °F 29.99 in NNE 2 mph 8 mph 38% 0.00 in 284 W/m2
18:10 90.5 °F 62.2 °F 29.99 in North 1 mph 7 mph 39% 0.00 in 215 W/m2
18:20 90 °F 61.7 °F 29.99 in NNW 3 mph 7 mph 39% 0.00 in 188 W/m2
18:30 89.6 °F 61.4 °F 29.99 in North 2 mph 10 mph 39% 0.00 in 167 W/m2
18:40 89.1 °F 60.9 °F 30.00 in North 6 mph 9 mph 39% 0.00 in 135 W/m2
18:50 88.5 °F 61.1 °F 30.00 in North 3 mph 8 mph 40% 0.00 in 108 W/m2
19:00 87.8 °F 61.9 °F 30.00 in North 2 mph 8 mph 42% 0.00 in 82 W/m2
19:10 87.1 °F 61.8 °F 30.01 in NNW 2 mph 7 mph 43% 0.00 in 48 W/m2
19:20 86.1 °F 61.7 °F 30.00 in Calm   5 mph 44% 0.00 in 28 W/m2
19:30 84.9 °F 59.9 °F 30.01 in NNW 1 mph 6 mph 43% 0.00 in 19 W/m2
19:50 83.1 °F 61.4 °F 30.01 in NNW 1 mph 5 mph 48% 0.00 in 5 W/m2
20:00 82 °F 61 °F 30.01 in NW 1 mph 2 mph 49% 0.00 in 0 W/m2
20:10 80.8 °F 61.5 °F 30.02 in SSW 1 mph 3 mph 52% 0.00 in 0 W/m2
20:20 80 °F 61.9 °F 30.02 in WSW 1 mph 3 mph 54% 0.00 in 0 W/m2
20:30 79.1 °F 61.6 °F 30.03 in WSW 1 mph 2 mph 55% 0.00 in 0 W/m2
20:40 78 °F 61.6 °F 30.03 in SW 1 mph 3 mph 57% 0.00 in 0 W/m2
20:50 77 °F 61.5 °F 30.03 in SSW 1 mph 3 mph 59% 0.00 in 0 W/m2
21:00 75.2 °F 60.3 °F 30.03 in South 3 mph 5 mph 60% 0.00 in 0 W/m2
21:10 74.1 °F 60.3 °F 30.04 in South 2 mph 4 mph 62% 0.00 in 0 W/m2
21:20 73.4 °F 60 °F 30.04 in South 1 mph 5 mph 63% 0.00 in 0 W/m2
21:40 72.3 °F 59.9 °F 30.04 in South 3 mph 5 mph 65% 0.00 in 0 W/m2
22:20 70.7 °F 60 °F 30.05 in WSW 1 mph 2 mph 69% 0.00 in 0 W/m2
22:30 70.3 °F 60 °F 30.05 in South 2 mph 4 mph 70% 0.00 in 0 W/m2
22:50 68.9 °F 59.9 °F 30.05 in Calm   4 mph 73% 0.00 in 0 W/m2
23:00 68.7 °F 60.1 °F 30.05 in ESE 1 mph 3 mph 74% 0.00 in 0 W/m2
23:10 68.5 °F 59.9 °F 30.05 in WSW 1 mph 2 mph 74% 0.00 in 0 W/m2
23:20 68 °F 59.8 °F 30.05 in WNW 1 mph 2 mph 75% 0.00 in 0 W/m2
23:30 67.6 °F 60.2 °F 30.05 in Calm   2 mph 77% 0.00 in 0 W/m2
23:40 67.3 °F 60.2 °F 30.05 in Calm   1 mph 78% 0.00 in 0 W/m2
23:50 67.1 °F 60 °F 30.06 in West 1 mph 2 mph 78% 0.00 in 0 W/m2
Knjazevac, Serbia
Compliments of Weather Underground - 2 mb